الصفحة الرئيسية
METAR-TAF:

METAR-TAF

مطار :

Arauca, كولومبيا

دائرة عرض: 07-04N, خط طول: 070-44W, ارتفاع: 128 متر

مراقبة الطقس الحالي

تاريخ ووقت الإصدار 48 دقيقة قبل الساعة 15:00UTC
ريح 6 عقدة من الشرق/الشمال الشرقي تتزايد حتى 16 عقدة
درجة الحرارة 31°درجة مئوية
الرطوبة 49%
ضغط 1015 hPa
الرؤية 10 كم أو أكثر
غيوم متفرقة على ارتفاع 2500 قدم

METAR: SKUC 011500Z 06006G16KT 9999 SCT025 31/19 Q1015

زمن: 10:48 (15:48 UTC)


TAF: مفقودة

أرصاد الطقس والتوقعات من أكثر من 4000 مطار (تقارير الطقس للمطار METAR والتنبؤ بالطقس بالمطارTAF).

المحطات المتاحة هي النقط الصفراء والحمراء على الخريطة.

حرك المؤشر فوق النقطة لمعرفة اسم المحطة.

ثم انقر لمعرفة أرصاد وتوقعات الطقس.

لتغيير الخارطة: اضغط على الأزرار الخضراء مع رمز الصليب الأسود للتكبير. على الزر الأخضر مع شرطة للتصغير، أو على الأسهم الخضراء للخرائط المجاورة.


METAR-TAF: